CheckWX is a tool to help pilots better visualize weather data.  It is not intended as a substitute for an official pre-flight weather briefing.

19:47:17 UTC

KHDN TAF
Yampa Valley Airport
Hayden, Colorado, USA
KHDN 271817Z 2718/2818 28008KT 1SM -SN BR OVC015 TEMPO 2718/2721 3SM -SN BR OVC020 FM272100 29010KT P6SM VCSH SCT020 BKN040 FM280000 28009KT P6SM BKN040 OVC060

Jan-27@
18:00 UTC

Jan-27 @ 18:00 UTC

Jan-27@
21:00 UTC

Jan-27 @ 21:00 UTC

KHDN 271817Z 2718/2818 28008KT 1SM -SN BR OVC015
Wind
  • 280° at 8 KTS
Conditions
Light Snow, Mist
Cloud Levels
  • Overcast at 1,500' AGL

Jan-27@
18:00 UTC

Jan-27 @ 18:00 UTC

Jan-27@
21:00 UTC

Jan-27 @ 21:00 UTC

TEMPO 2718/2721 3SM -SN BR OVC020

Temporary

Temporary Changes expected for less than half the time period

Conditions
Light Snow, Mist
Cloud Levels
  • Overcast at 2,000' AGL

Jan-27@
21:00 UTC

Jan-27 @ 21:00 UTC

Jan-28@
00:00 UTC

Jan-28 @ 00:00 UTC

FM272100 29010KT P6SM VCSH SCT020 BKN040

From

From Standard forecast or significant change

Wind
  • 290° at 10 KTS
Cloud Levels
  • Scattered at 2,000' AGL
  • Broken at 4,000' AGL

Jan-28@
00:00 UTC

Jan-28 @ 00:00 UTC

Jan-28@
18:00 UTC

Jan-28 @ 18:00 UTC

FM280000 28009KT P6SM BKN040 OVC060

From

From Standard forecast or significant change

Wind
  • 280° at 9 KTS
Cloud Levels
  • Broken at 4,000' AGL
  • Overcast at 6,000' AGL